SWA945 KDEN-KSLC
Flight info
| Callsign | SWA945 |
|---|---|
| Flight time | N/A |
| Altitude | 34000 |
| Route | ZIMMR4 CHNGY EKR RACER PITTT2 |
| Aircraft | B737/M-SADE2E3GIJ4RWZ/LB1D1 |
Departure
| Time | 2026-05-06 02:00 |
|---|---|
| Airport | Denver International Airport (KDEN) |
Arrival
| Time | N/A |
|---|---|
| Airport | Salt Lake City International Airport (KSLC) |
| Time | Latitude | Longitude | Altitude | Speed | Heading |
|---|---|---|---|---|---|
| 2026-05-06 01:40 | 39.86258 | -104.67204 | 5365 ft | 0 kts | 359° |
| 2026-05-06 01:49 | 39.86248 | -104.67204 | 5363 ft | 3 kts | 359° |
| 2026-05-06 01:49 | 39.86236 | -104.67204 | 5362 ft | 2 kts | 359° |
| 2026-05-06 01:50 | 39.86218 | -104.67203 | 5363 ft | 3 kts | 359° |
| 2026-05-06 01:50 | 39.86201 | -104.67203 | 5363 ft | 3 kts | 359° |
| 2026-05-06 01:50 | 39.86183 | -104.67202 | 5361 ft | 3 kts | 359° |
| 2026-05-06 01:50 | 39.86170 | -104.67202 | 5363 ft | 0 kts | 359° |
| 2026-05-06 01:53 | 39.86171 | -104.67202 | 5365 ft | 0 kts | 355° |
| 2026-05-06 01:54 | 39.86171 | -104.67212 | 5365 ft | 1 kts | 264° |
| 2026-05-06 01:54 | 39.86143 | -104.67251 | 5364 ft | 10 kts | 239° |
| 2026-05-06 01:54 | 39.86115 | -104.67354 | 5365 ft | 15 kts | 254° |
| 2026-05-06 01:54 | 39.86082 | -104.67519 | 5365 ft | 22 kts | 256° |
| 2026-05-06 01:55 | 39.86067 | -104.67727 | 5364 ft | 23 kts | 271° |
| 2026-05-06 01:55 | 39.86069 | -104.67933 | 5365 ft | 22 kts | 270° |
| 2026-05-06 01:55 | 39.86061 | -104.68132 | 5363 ft | 22 kts | 249° |
| 2026-05-06 01:55 | 39.86033 | -104.68316 | 5365 ft | 18 kts | 271° |
| 2026-05-06 01:56 | 39.85948 | -104.68393 | 5363 ft | 17 kts | 179° |
| 2026-05-06 01:56 | 39.85812 | -104.68394 | 5363 ft | 23 kts | 180° |
| 2026-05-06 01:56 | 39.85637 | -104.68395 | 5363 ft | 26 kts | 181° |
| 2026-05-06 01:56 | 39.85454 | -104.68397 | 5365 ft | 25 kts | 181° |
| 2026-05-06 01:57 | 39.85288 | -104.68400 | 5364 ft | 22 kts | 180° |
| 2026-05-06 01:57 | 39.85204 | -104.68497 | 5365 ft | 19 kts | 270° |
| 2026-05-06 01:57 | 39.85203 | -104.68664 | 5365 ft | 18 kts | 268° |
| 2026-05-06 01:57 | 39.85200 | -104.68826 | 5364 ft | 18 kts | 267° |
| 2026-05-06 01:58 | 39.85196 | -104.68994 | 5365 ft | 20 kts | 270° |
| 2026-05-06 01:58 | 39.85196 | -104.69175 | 5365 ft | 21 kts | 271° |
| 2026-05-06 01:58 | 39.85200 | -104.69368 | 5365 ft | 23 kts | 272° |
| 2026-05-06 01:58 | 39.85202 | -104.69572 | 5365 ft | 18 kts | 270° |
| 2026-05-06 01:59 | 39.85281 | -104.69657 | 5365 ft | 18 kts | 0° |
| 2026-05-06 01:59 | 39.85607 | -104.69653 | 5367 ft | 87 kts | 0° |
| 2026-05-06 01:59 | 39.86474 | -104.69644 | 5395 ft | 156 kts | 1° |
| 2026-05-06 01:59 | 39.87684 | -104.69685 | 5869 ft | 194 kts | 358° |
| 2026-05-06 02:00 | 39.89199 | -104.69778 | 6294 ft | 240 kts | 358° |
| 2026-05-06 02:00 | 39.90980 | -104.69830 | 7078 ft | 260 kts | 1° |
| 2026-05-06 02:00 | 39.92772 | -104.70363 | 7962 ft | 279 kts | 330° |
| 2026-05-06 02:00 | 39.94126 | -104.72165 | 8960 ft | 283 kts | 295° |
| 2026-05-06 02:01 | 39.94557 | -104.74645 | 9674 ft | 285 kts | 266° |
| 2026-05-06 02:01 | 39.94062 | -104.77156 | 10072 ft | 291 kts | 251° |
| 2026-05-06 02:01 | 39.93527 | -104.79711 | 10017 ft | 291 kts | 258° |
| 2026-05-06 02:01 | 39.93257 | -104.82301 | 10002 ft | 286 kts | 265° |
| 2026-05-06 02:02 | 39.93178 | -104.84871 | 10010 ft | 283 kts | 268° |
| 2026-05-06 02:02 | 39.93178 | -104.87428 | 10003 ft | 283 kts | 269° |
| 2026-05-06 02:02 | 39.93202 | -104.89997 | 10008 ft | 284 kts | 270° |
| 2026-05-06 02:02 | 39.93251 | -104.92586 | 10148 ft | 289 kts | 271° |
| 2026-05-06 02:03 | 39.93318 | -104.95196 | 11140 ft | 285 kts | 271° |
| 2026-05-06 02:03 | 39.93381 | -104.97743 | 12311 ft | 279 kts | 271° |
| 2026-05-06 02:03 | 39.93442 | -105.00260 | 13360 ft | 278 kts | 271° |
| 2026-05-06 02:03 | 39.93500 | -105.02775 | 14322 ft | 278 kts | 271° |
| 2026-05-06 02:04 | 39.93558 | -105.05309 | 15150 ft | 281 kts | 271° |
| 2026-05-06 02:04 | 39.93616 | -105.07856 | 16002 ft | 283 kts | 271° |
| 2026-05-06 02:04 | 39.93673 | -105.10428 | 16860 ft | 285 kts | 271° |
| 2026-05-06 02:04 | 39.93731 | -105.13013 | 17719 ft | 287 kts | 271° |
| 2026-05-06 02:05 | 39.93789 | -105.15620 | 18528 ft | 289 kts | 271° |
| 2026-05-06 02:05 | 39.93846 | -105.18249 | 19219 ft | 293 kts | 271° |
| 2026-05-06 02:05 | 39.93903 | -105.20887 | 19911 ft | 296 kts | 271° |
| 2026-05-06 02:05 | 39.94000 | -105.23582 | 20601 ft | 300 kts | 274° |
| 2026-05-06 02:06 | 39.94210 | -105.26306 | 21308 ft | 304 kts | 275° |
| 2026-05-06 02:06 | 39.94448 | -105.29058 | 21997 ft | 307 kts | 276° |
| 2026-05-06 02:06 | 39.94684 | -105.31845 | 22694 ft | 311 kts | 275° |
| 2026-05-06 02:06 | 39.94911 | -105.34665 | 23387 ft | 315 kts | 275° |
| 2026-05-06 02:07 | 39.95135 | -105.37524 | 23994 ft | 319 kts | 275° |
| 2026-05-06 02:07 | 39.95361 | -105.40417 | 24461 ft | 327 kts | 275° |
| 2026-05-06 02:07 | 39.95599 | -105.43454 | 24542 ft | 345 kts | 275° |
| 2026-05-06 02:07 | 39.95848 | -105.46635 | 24685 ft | 361 kts | 275° |
| 2026-05-06 02:08 | 39.96106 | -105.49927 | 25064 ft | 368 kts | 275° |
| 2026-05-06 02:08 | 39.96365 | -105.53253 | 25599 ft | 370 kts | 275° |
| 2026-05-06 02:08 | 39.96625 | -105.56599 | 26140 ft | 372 kts | 275° |
| 2026-05-06 02:08 | 39.96885 | -105.59970 | 26629 ft | 375 kts | 275° |
| 2026-05-06 02:09 | 39.97142 | -105.63360 | 27131 ft | 378 kts | 275° |
| 2026-05-06 02:09 | 39.97396 | -105.66781 | 27649 ft | 380 kts | 274° |
| 2026-05-06 02:09 | 39.97600 | -105.70197 | 28401 ft | 376 kts | 273° |
| 2026-05-06 02:09 | 39.97772 | -105.73627 | 28323 ft | 378 kts | 272° |
| 2026-05-06 02:10 | 39.97930 | -105.77005 | 28112 ft | 369 kts | 272° |
| 2026-05-06 02:10 | 39.98086 | -105.80335 | 28000 ft | 370 kts | 272° |
| 2026-05-06 02:10 | 39.98242 | -105.83643 | 27976 ft | 370 kts | 273° |
| 2026-05-06 02:10 | 39.98402 | -105.86980 | 27986 ft | 367 kts | 273° |
| 2026-05-06 02:11 | 39.98563 | -105.90309 | 27993 ft | 368 kts | 273° |
| 2026-05-06 02:11 | 39.98725 | -105.93643 | 27983 ft | 366 kts | 273° |
| 2026-05-06 02:11 | 39.98883 | -105.96897 | 27966 ft | 353 kts | 273° |
| 2026-05-06 02:11 | 39.99035 | -106.00030 | 27949 ft | 339 kts | 273° |
| 2026-05-06 02:12 | 39.99181 | -106.03047 | 27960 ft | 330 kts | 273° |
| 2026-05-06 02:12 | 39.99323 | -106.06031 | 27956 ft | 329 kts | 273° |
| 2026-05-06 02:12 | 39.99466 | -106.09017 | 27940 ft | 331 kts | 273° |
| 2026-05-06 02:12 | 39.99607 | -106.12009 | 27931 ft | 331 kts | 273° |
| 2026-05-06 02:13 | 39.99748 | -106.15003 | 27927 ft | 331 kts | 273° |
| 2026-05-06 02:13 | 39.99896 | -106.18163 | 27920 ft | 331 kts | 274° |
| 2026-05-06 02:13 | 40.00038 | -106.21205 | 27896 ft | 332 kts | 274° |
| 2026-05-06 02:13 | 40.00175 | -106.24163 | 27890 ft | 331 kts | 274° |
| 2026-05-06 02:14 | 40.00315 | -106.27198 | 27870 ft | 331 kts | 274° |
| 2026-05-06 02:14 | 40.00453 | -106.30197 | 27859 ft | 331 kts | 274° |
| 2026-05-06 02:14 | 40.00588 | -106.33155 | 27849 ft | 331 kts | 274° |
| 2026-05-06 02:14 | 40.00724 | -106.36154 | 27832 ft | 332 kts | 274° |
| 2026-05-06 02:15 | 40.00860 | -106.39159 | 27823 ft | 332 kts | 274° |
| 2026-05-06 02:15 | 40.00995 | -106.42170 | 27823 ft | 332 kts | 274° |
| 2026-05-06 02:15 | 40.01129 | -106.45178 | 27827 ft | 332 kts | 274° |